Terminal Aerodrome Forecast
Issued by NWS

Home | Current Version | Previous Version | Text Only | Print | Product List | Glossary On
Versions: 1 2 3 4 5 6 7 8 9 10 11 12 13 14
000
FTUS45 KLKN 230500
TAFTPH
TAF
KTPH 230520Z 2306/2406 34015G25KT P6SM SKC
     FM230900 35007KT P6SM SKC
     FM231800 30012G22KT P6SM FEW060
     FM240200 30009KT P6SM SKC=

USA.gov is the U.S. government's official web portal to all federal, state and local government web resources and services.